createdAt,value
2022-10-14T03:01:43.091Z,100108.63
2022-10-14T03:04:12.658Z,100105.03
2022-10-14T03:06:41.607Z,100105.94
2022-10-14T03:09:10.160Z,100104.28
2022-10-14T03:11:41.572Z,100099.91
2022-10-14T03:14:15.389Z,100103.41
2022-10-14T03:16:46.006Z,100102.50
2022-10-14T03:19:20.471Z,100107.66
2022-10-14T03:21:52.673Z,100101.59
2022-10-14T03:24:22.298Z,100100.88
2022-10-14T03:27:05.230Z,100092.47
2022-10-14T03:29:33.726Z,100097.59
2022-10-14T03:32:15.193Z,100100.00
2022-10-14T03:35:02.413Z,100102.66
2022-10-14T03:37:30.934Z,100098.28
2022-10-14T03:40:00.251Z,100094.75
2022-10-14T03:42:28.768Z,100093.00
2022-10-14T03:44:57.243Z,100093.00
2022-10-14T03:47:30.809Z,100091.19
2022-10-14T03:50:00.463Z,100089.38
2022-10-14T03:52:35.195Z,100087.78
2022-10-14T03:55:12.292Z,100090.53
2022-10-14T03:57:43.092Z,100084.34
2022-10-14T04:00:13.868Z,100087.88
2022-10-14T04:02:43.891Z,100080.09
2022-10-14T04:05:32.443Z,100089.56
2022-10-14T04:08:03.017Z,100086.94
2022-10-14T04:10:31.409Z,100079.97
2022-10-14T04:13:00.514Z,100087.72
2022-10-14T04:15:36.887Z,100078.31
2022-10-14T04:18:23.401Z,100081.72
2022-10-14T04:20:53.796Z,100079.88
2022-10-14T04:23:24.521Z,100072.13
2022-10-14T04:25:57.391Z,100080.72
2022-10-14T04:28:26.601Z,100078.16
2022-10-14T04:31:07.275Z,100088.53
2022-10-14T04:33:48.911Z,100088.53
2022-10-14T04:36:23.639Z,100080.66
2022-10-14T04:38:52.003Z,100079.75
2022-10-14T04:41:20.999Z,100077.09
2022-10-14T04:43:51.004Z,100073.69
2022-10-14T04:46:36.846Z,100067.69
2022-10-14T04:49:06.597Z,100063.31
2022-10-14T04:51:40.801Z,100060.72
2022-10-14T04:54:24.612Z,100052.06
2022-10-14T04:56:56.770Z,100054.69
2022-10-14T04:59:25.173Z,100063.25
2022-10-14T05:01:59.310Z,100061.47
2022-10-14T05:04:38.099Z,100053.88
2022-10-14T05:07:07.425Z,100052.97
2022-10-14T05:09:35.966Z,100051.22
2022-10-14T05:12:05.964Z,100044.13
2022-10-14T05:14:42.805Z,100043.31
2022-10-14T05:17:21.349Z,100044.34
2022-10-14T05:19:51.158Z,100041.59
2022-10-14T05:22:22.014Z,100039.94
2022-10-14T05:24:51.017Z,100034.78
2022-10-14T05:27:19.934Z,100039.28
2022-10-14T05:29:49.370Z,100046.00
2022-10-14T05:32:18.269Z,100035.47
2022-10-14T05:34:48.106Z,100042.38
2022-10-14T05:37:28.323Z,100043.31
2022-10-14T05:39:57.354Z,100038.09
2022-10-14T05:42:27.988Z,100034.72
2022-10-14T05:44:59.221Z,100036.38
2022-10-14T05:47:29.910Z,100035.41
2022-10-14T05:50:04.557Z,100040.72
2022-10-14T05:52:35.856Z,100036.38
2022-10-14T05:55:13.705Z,100032.19
2022-10-14T05:57:44.414Z,100032.22
2022-10-14T06:00:24.702Z,100036.44
2022-10-14T06:02:59.017Z,100038.09
2022-10-14T06:05:28.546Z,100030.38
2022-10-14T06:07:58.451Z,100027.56
2022-10-14T06:10:27.353Z,100022.28
2022-10-14T06:12:55.885Z,100024.06
2022-10-14T06:15:24.305Z,100029.19
2022-10-14T06:17:53.046Z,100032.63
2022-10-14T06:20:21.705Z,100032.53
2022-10-14T06:22:50.189Z,100034.28
2022-10-14T06:25:19.956Z,100030.75
2022-10-14T06:27:48.274Z,100029.13
2022-10-14T06:30:16.713Z,100015.94
2022-10-14T06:32:45.196Z,100023.28
2022-10-14T06:35:13.563Z,100024.78
2022-10-14T06:37:41.869Z,100026.56
2022-10-14T06:40:11.188Z,100015.03
2022-10-14T06:42:40.991Z,100027.03
2022-10-14T06:45:11.185Z,100022.59
2022-10-14T06:47:39.847Z,100024.34
2022-10-14T06:50:09.309Z,100032.88
2022-10-14T06:52:37.751Z,100029.31
2022-10-14T06:55:09.084Z,100032.72
2022-10-14T06:57:37.461Z,100034.44
2022-10-14T07:00:09.559Z,100031.81
2022-10-14T07:02:39.369Z,100029.22
2022-10-14T07:05:08.305Z,100035.25
2022-10-14T07:07:36.760Z,100030.81
2022-10-14T07:10:05.961Z,100032.56
2022-10-14T07:12:34.299Z,100030.72
2022-10-14T07:15:05.103Z,100029.94
2022-10-14T07:17:34.867Z,100024.56
2022-10-14T07:20:03.294Z,100024.53
2022-10-14T07:22:36.256Z,100021.03
2022-10-14T07:25:08.445Z,100020.25
2022-10-14T07:27:36.857Z,100017.88
2022-10-14T07:30:06.936Z,100017.78
2022-10-14T07:32:38.208Z,100014.28
2022-10-14T07:35:07.939Z,100012.72
2022-10-14T07:37:36.275Z,100024.81
2022-10-14T07:40:05.715Z,100024.16
2022-10-14T07:42:34.136Z,100021.22
2022-10-14T07:45:02.787Z,100023.81
2022-10-14T07:47:31.442Z,100031.44
2022-10-14T07:50:02.042Z,100031.22
2022-10-14T07:52:30.483Z,100020.78
2022-10-14T07:54:59.051Z,100020.72
2022-10-14T07:57:27.733Z,100012.00
2022-10-14T07:59:56.065Z,100017.44
2022-10-14T08:02:24.401Z,100030.25
2022-10-14T08:05:04.163Z,100028.28
2022-10-14T08:07:43.044Z,100030.88
2022-10-14T08:10:11.402Z,100036.09
2022-10-14T08:12:40.120Z,100036.00
2022-10-14T08:15:10.142Z,100029.09
2022-10-14T08:17:38.429Z,100026.13
2022-10-14T08:20:08.297Z,100016.72
2022-10-14T08:22:36.899Z,100012.16
2022-10-14T08:25:07.576Z,100015.47
2022-10-14T08:27:35.953Z,100014.03
2022-10-14T08:30:08.706Z,100022.66
2022-10-14T08:32:38.756Z,100019.69
2022-10-14T08:35:08.951Z,100018.00
2022-10-14T08:37:37.394Z,100017.94
2022-10-14T08:40:09.380Z,100021.25
2022-10-14T08:42:44.725Z,100015.13
2022-10-14T08:45:20.080Z,100006.56
2022-10-14T08:47:48.861Z,100000.28
2022-10-14T08:50:28.869Z,99998.41
2022-10-14T08:53:04.190Z,99999.38
2022-10-14T08:55:40.465Z,100006.69
2022-10-14T08:58:16.977Z,99997.47
2022-10-14T09:00:48.869Z,100006.75
2022-10-14T09:03:22.097Z,100013.09
2022-10-14T09:05:59.099Z,100016.31
2022-10-14T09:08:34.533Z,100017.00
2022-10-14T09:11:04.450Z,100014.78
2022-10-14T09:13:39.280Z,100009.72
2022-10-14T09:16:12.428Z,100000.19
2022-10-14T09:18:45.481Z,99994.06
2022-10-14T09:21:51.708Z,100005.88
2022-10-14T09:24:23.444Z,100002.16
2022-10-14T09:26:59.289Z,99993.56
2022-10-14T09:29:29.984Z,99997.81
2022-10-14T09:32:00.774Z,99993.25
2022-10-14T09:34:34.688Z,99981.03
2022-10-14T09:37:23.210Z,99977.50
2022-10-14T09:39:53.350Z,99980.91
2022-10-14T09:42:28.173Z,99974.13
2022-10-14T09:45:11.344Z,99962.16
2022-10-14T09:47:52.502Z,99956.91
2022-10-14T09:50:26.507Z,99950.84
2022-10-14T09:53:01.532Z,99953.94
2022-10-14T09:55:30.934Z,99937.56
2022-10-14T09:58:06.923Z,99937.81
2022-10-14T10:00:38.706Z,99931.28
2022-10-14T10:03:08.208Z,99934.09
2022-10-14T10:05:37.760Z,99919.94
2022-10-14T10:08:18.995Z,99920.44
2022-10-14T10:11:05.482Z,99924.47
2022-10-14T10:13:45.004Z,99926.06
2022-10-14T10:16:26.493Z,99924.69
2022-10-14T10:18:57.287Z,99930.47
2022-10-14T10:21:29.802Z,99921.69
2022-10-14T10:24:01.267Z,99920.19
2022-10-14T10:26:32.305Z,99916.78
2022-10-14T10:29:05.323Z,99923.66
2022-10-14T10:32:07.165Z,99918.25
2022-10-14T10:35:16.569Z,99914.56
2022-10-14T10:37:56.812Z,99909.09
2022-10-14T10:40:41.324Z,99915.81
2022-10-14T10:43:27.574Z,99914.09
2022-10-14T10:46:24.292Z,99910.81
2022-10-14T10:49:01.802Z,99906.41
2022-10-14T10:51:39.189Z,99905.56
2022-10-14T10:54:27.281Z,99904.00
2022-10-14T10:57:00.933Z,99905.13
2022-10-14T10:59:50.875Z,99904.31
2022-10-14T11:02:55.205Z,99901.03
2022-10-14T11:05:44.733Z,99899.44
2022-10-14T11:08:53.399Z,99897.38
2022-10-14T11:11:45.093Z,99894.41
2022-10-14T11:14:28.985Z,99900.88
2022-10-14T11:17:05.296Z,99885.59
2022-10-14T11:19:45.290Z,99877.47
2022-10-14T11:22:29.860Z,99878.97
2022-10-14T11:25:08.123Z,99874.91
2022-10-14T11:27:43.637Z,99867.47
2022-10-14T11:30:19.164Z,99864.19
2022-10-14T11:33:05.138Z,99852.91
2022-10-14T11:35:50.698Z,99847.63
2022-10-14T11:38:46.711Z,99855.41
2022-10-14T11:41:27.775Z,99859.19
2022-10-14T11:44:04.362Z,99855.03
2022-10-14T11:46:38.614Z,99846.16
2022-10-14T11:49:17.490Z,99842.84
2022-10-14T11:51:53.511Z,99840.22
2022-10-14T11:54:29.463Z,99841.09
2022-10-14T11:57:02.461Z,99837.78
2022-10-14T11:59:40.436Z,99832.66
